Time;durP1;ratioP1;P1;durP2;ratioP2;P2;SDS_P1;SDS_P2;PMS_P1;PMS_P2;Temp;Humidity;BMP_temperature;BMP_pressure;BME280_temperature;BME280_humidity;BME280_pressure;Samples;Min_cycle;Max_cycle;Signal;HPM_P1;HPM_P2
2021/03/13 00:04:03;;;;;;;15.60;6.03;;;;;;;2.91;66.94;98366.87;4097272;86;21427;-87
2021/03/13 00:10:07;;;;;;;18.48;6.72;;;;;;;3.01;65.76;98363.71;4085661;86;21410;-88
2021/03/13 00:16:09;;;;;;;11.22;4.92;;;;;;;3.11;65.87;98361.91;4095227;85;21274;-87
2021/03/13 00:22:11;;;;;;;15.50;5.42;;;;;;;3.15;65.31;98363.34;4093575;85;22018;-89
2021/03/13 00:28:13;;;;;;;14.80;5.53;;;;;;;3.20;64.92;98360.41;4088470;86;21677;-87
2021/03/13 00:34:14;;;;;;;12.47;6.03;;;;;;;3.20;64.43;98348.23;4092228;86;22075;-87
2021/03/13 00:40:22;;;;;;;18.27;7.10;;;;;;;3.27;64.66;98343.05;4085672;86;21895;-89
2021/03/13 00:46:23;;;;;;;16.48;5.53;;;;;;;3.21;64.56;98342.48;4112668;85;21808;-87
2021/03/13 00:52:25;;;;;;;12.98;4.83;;;;;;;3.14;64.17;98332.83;4055984;87;21297;-88
2021/03/13 00:58:27;;;;;;;9.68;4.03;;;;;;;3.06;64.25;98331.59;4038558;87;21625;-88
2021/03/13 01:04:30;;;;;;;11.43;4.15;;;;;;;3.07;64.17;98334.50;4097757;85;21229;-88
2021/03/13 01:10:36;;;;;;;14.50;4.35;;;;;;;3.13;63.44;98327.76;4100236;86;21686;-88
2021/03/13 01:16:39;;;;;;;13.53;4.62;;;;;;;3.07;63.78;98329.09;4088153;87;21208;-87
2021/03/13 01:22:43;;;;;;;12.98;4.87;;;;;;;3.12;63.61;98321.55;4086171;86;21244;-87
2021/03/13 01:28:46;;;;;;;15.65;4.58;;;;;;;3.07;63.39;98310.17;4089238;86;21248;-88
2021/03/13 01:35:10;;;;;;;9.63;3.37;;;;;;;3.12;62.79;98309.38;4501389;77;22956;-88
2021/03/13 01:41:12;;;;;;;8.18;3.22;;;;;;;3.13;63.11;98298.78;4433624;78;21229;-88
2021/03/13 01:47:24;;;;;;;13.13;4.75;;;;;;;3.01;63.75;98302.88;4284579;81;21843;-89
2021/03/13 01:53:27;;;;;;;10.55;3.95;;;;;;;2.76;63.85;98300.00;4334483;81;21165;-88
2021/03/13 01:59:31;;;;;;;7.12;3.17;;;;;;;2.56;64.24;98294.73;4294400;81;21412;-90
2021/03/13 02:05:38;;;;;;;12.40;3.80;;;;;;;2.71;64.31;98290.77;4276540;81;21221;-89
2021/03/13 02:12:10;;;;;;;10.72;3.83;;;;;;;2.80;64.34;98296.82;4274841;81;21667;-88
2021/03/13 02:18:33;;;;;;;9.95;2.60;;;;;;;3.05;63.86;98280.00;4268574;80;21658;-89
2021/03/13 02:24:53;;;;;;;10.23;3.33;;;;;;;3.15;63.15;98271.39;4352872;80;21212;-89
2021/03/13 02:30:56;;;;;;;7.45;2.72;;;;;;;3.27;63.31;98265.95;4314616;80;21228;-89
2021/03/13 02:37:04;;;;;;;8.68;3.40;;;;;;;3.16;63.26;98271.05;4267768;81;21205;-89
2021/03/13 02:43:11;;;;;;;13.38;4.65;;;;;;;3.11;63.33;98266.45;4252688;83;21574;-88
2021/03/13 02:49:16;;;;;;;6.87;2.30;;;;;;;3.13;63.02;98259.56;4258038;81;21759;-88
2021/03/13 02:55:21;;;;;;;7.92;2.85;;;;;;;3.23;62.80;98255.03;4256588;81;21357;-89
2021/03/13 03:01:29;;;;;;;7.58;3.00;;;;;;;3.30;62.40;98248.23;4260635;81;21178;-88
2021/03/13 03:07:34;;;;;;;12.43;4.70;;;;;;;3.38;62.61;98237.83;4194641;82;21673;-88
2021/03/13 03:13:38;;;;;;;13.85;4.92;;;;;;;3.41;62.43;98224.96;4205729;84;21199;-87
2021/03/13 03:19:44;;;;;;;54.88;20.68;;;;;;;3.55;61.89;98230.75;4182556;84;21215;-90
2021/03/13 03:25:53;;;;;;;72.55;24.52;;;;;;;3.56;62.11;98232.31;4202402;84;21186;-87
2021/03/13 03:31:56;;;;;;;49.23;15.83;;;;;;;3.61;62.14;98226.65;4244905;81;21236;-88
2021/03/13 03:38:02;;;;;;;33.50;11.95;;;;;;;3.69;61.64;98215.67;4341538;81;21228;-88
2021/03/13 03:44:10;;;;;;;31.07;11.00;;;;;;;3.70;61.88;98209.67;4320882;81;21696;-88
2021/03/13 03:50:15;;;;;;;29.23;8.93;;;;;;;3.70;61.81;98202.34;4298994;81;21177;-87
2021/03/13 03:57:10;;;;;;;33.65;10.65;;;;;;;3.88;61.46;98200.88;4574105;75;50058;-88
2021/03/13 04:03:28;;;;;;;37.73;11.38;;;;;;;3.81;61.54;98196.63;4265684;81;120276;-88
2021/03/13 04:16:21;;;;;;;9.95;4.33;;;;;;;3.90;61.19;98172.09;4266152;81;21227;-88
2021/03/13 04:22:24;;;;;;;8.20;3.98;;;;;;;3.92;61.19;98174.66;4265021;81;21212;-87
2021/03/13 04:35:29;;;;;;;34.40;10.82;;;;;;;3.98;60.72;98157.56;4275382;81;21228;-88
2021/03/13 04:48:02;;;;;;;13.72;5.37;;;;;;;4.10;60.37;98157.48;4475698;78;21193;-88
2021/03/13 04:54:16;;;;;;;12.20;3.80;;;;;;;4.31;59.37;98157.37;4481333;78;21441;-87
2021/03/13 05:00:19;;;;;;;11.83;4.17;;;;;;;4.49;59.02;98138.80;4448353;78;21193;-90
2021/03/13 05:06:52;;;;;;;9.90;2.62;;;;;;;4.60;58.57;98133.80;4455447;78;21190;-88
2021/03/13 05:13:00;;;;;;;7.30;2.20;;;;;;;4.78;58.15;98130.09;4448168;78;22248;-89
2021/03/13 05:19:02;;;;;;;6.65;2.05;;;;;;;4.76;58.22;98135.11;4473683;78;21155;-88
2021/03/13 05:31:50;;;;;;;8.80;2.45;;;;;;;4.87;57.83;98114.97;4457471;78;21682;-89
2021/03/13 05:37:52;;;;;;;4.95;1.77;;;;;;;5.05;57.41;98124.22;4462060;78;21772;-89
2021/03/13 05:44:07;;;;;;;3.85;1.72;;;;;;;5.20;56.54;98120.64;4490837;78;21184;-87
2021/03/13 05:57:31;;;;;;;6.22;2.22;;;;;;;5.31;56.67;98123.73;4410602;79;21158;-88
2021/03/13 06:03:33;;;;;;;7.22;1.92;;;;;;;5.39;57.76;98125.99;4435579;79;21206;-88
2021/03/13 06:09:35;;;;;;;5.45;2.27;;;;;;;5.52;57.52;98135.53;4438838;78;21383;-88
2021/03/13 06:15:37;;;;;;;5.58;2.10;;;;;;;5.73;57.76;98142.69;4450147;78;21174;-88
2021/03/13 06:22:15;;;;;;;7.47;1.90;;;;;;;6.10;58.37;98146.41;4449330;79;21824;-89
2021/03/13 06:28:30;;;;;;;7.62;2.72;;;;;;;6.57;58.33;98156.77;4363320;80;24292;-87
2021/03/13 06:34:31;;;;;;;11.80;5.85;;;;;;;6.75;56.56;98164.61;4314787;81;21315;-87
2021/03/13 06:40:36;;;;;;;5.85;2.45;;;;;;;6.69;57.44;98164.13;4280370;81;21197;-87
2021/03/13 06:46:38;;;;;;;4.67;2.00;;;;;;;6.71;57.65;98172.70;4315049;81;22132;-87
2021/03/13 06:52:51;;;;;;;13.10;2.58;;;;;;;6.87;57.70;98182.05;4307397;81;21343;-87
2021/03/13 06:58:52;;;;;;;4.97;2.00;;;;;;;7.11;57.45;98183.69;4300153;81;21181;-87
2021/03/13 07:05:10;;;;;;;6.05;2.30;;;;;;;7.33;57.43;98192.30;4296273;81;21229;-87
2021/03/13 07:11:19;;;;;;;5.53;2.52;;;;;;;7.43;57.21;98191.65;4300798;81;22061;-86
2021/03/13 07:17:23;;;;;;;13.30;4.28;;;;;;;7.46;57.87;98192.27;4301094;81;21204;-87
2021/03/13 07:23:27;;;;;;;5.65;2.55;;;;;;;7.49;57.89;98202.98;4302264;81;21229;-87
2021/03/13 07:29:28;;;;;;;5.53;2.00;;;;;;;7.56;57.48;98215.32;4316521;81;21164;-87
2021/03/13 07:35:40;;;;;;;5.65;2.40;;;;;;;7.53;58.10;98210.63;4312089;81;21181;-86
2021/03/13 07:42:00;;;;;;;7.65;2.80;;;;;;;7.54;58.40;98213.54;4319480;81;21706;-87
2021/03/13 07:48:02;;;;;;;6.50;2.25;;;;;;;7.62;58.07;98211.89;4318442;81;21851;-87
2021/03/13 07:54:08;;;;;;;6.58;2.22;;;;;;;7.79;58.26;98217.30;4320820;81;21180;-88
2021/03/13 08:00:11;;;;;;;4.40;2.22;;;;;;;7.95;58.85;98224.66;4319073;81;21229;-88
2021/03/13 08:06:17;;;;;;;4.03;1.90;;;;;;;8.21;58.62;98224.48;4313244;81;21229;-86
2021/03/13 08:12:44;;;;;;;4.30;2.08;;;;;;;8.62;58.42;98231.45;4318551;81;21175;-86
2021/03/13 08:18:54;;;;;;;6.60;2.03;;;;;;;9.04;58.15;98219.40;4240582;82;21710;-86
2021/03/13 08:24:56;;;;;;;6.10;1.98;;;;;;;9.46;55.81;98226.97;4229238;82;21229;-88
2021/03/13 08:31:32;;;;;;;6.12;2.00;;;;;;;9.46;56.03;98218.77;4221773;83;21211;-87
2021/03/13 08:37:46;;;;;;;4.95;1.95;;;;;;;9.39;55.87;98220.13;4150343;84;21255;-87
2021/03/13 08:43:53;;;;;;;4.92;1.70;;;;;;;9.59;55.68;98209.06;4154705;84;21625;-87
2021/03/13 08:49:55;;;;;;;5.65;1.90;;;;;;;10.26;55.73;98220.09;4200666;83;21214;-87
2021/03/13 08:55:57;;;;;;;5.83;2.35;;;;;;;11.05;54.11;98219.01;4222472;83;21214;-87
2021/03/13 09:02:13;;;;;;;3.30;1.98;;;;;;;11.92;52.32;98216.45;4169430;84;21126;-87
2021/03/13 09:08:19;;;;;;;6.08;2.25;;;;;;;12.74;53.26;98229.70;4182335;83;21257;-90
2021/03/13 09:14:20;;;;;;;4.60;1.80;;;;;;;13.40;51.78;98226.05;4232264;83;21295;-88
2021/03/13 09:20:22;;;;;;;5.58;2.08;;;;;;;13.64;48.66;98213.97;4232769;82;21695;-89
2021/03/13 09:26:24;;;;;;;5.60;1.95;;;;;;;13.94;48.92;98224.33;4208484;83;21211;-88
2021/03/13 09:32:27;;;;;;;4.53;2.00;;;;;;;14.63;47.64;98234.67;4210650;83;21680;-89
2021/03/13 09:38:29;;;;;;;2.95;1.67;;;;;;;14.74;47.44;98238.02;4202871;84;21157;-89
2021/03/13 09:44:38;;;;;;;5.85;2.77;;;;;;;15.18;46.84;98233.47;4200779;84;21189;-88
2021/03/13 09:50:40;;;;;;;5.75;2.25;;;;;;;15.82;46.65;98229.44;4195675;84;21715;-89
2021/03/13 09:56:41;;;;;;;4.83;2.20;;;;;;;16.12;45.10;98214.72;4197656;84;21207;-88
2021/03/13 10:02:44;;;;;;;5.95;2.27;;;;;;;16.52;44.76;98213.38;4204619;84;21319;-90
2021/03/13 10:08:46;;;;;;;4.00;1.85;;;;;;;16.12;43.32;98194.02;4188100;84;21208;-90
2021/03/13 10:14:49;;;;;;;4.33;1.60;;;;;;;16.03;41.77;98205.48;4201085;84;21521;-91
2021/03/13 10:20:56;;;;;;;4.78;1.80;;;;;;;16.42;42.29;98201.18;4192584;84;21656;-89
2021/03/13 10:27:06;;;;;;;4.28;1.85;;;;;;;16.56;42.35;98185.66;4188613;84;21660;-91
2021/03/13 10:33:10;;;;;;;3.30;1.85;;;;;;;17.02;41.43;98180.46;4161650;84;21269;-90
2021/03/13 10:39:14;;;;;;;2.98;1.62;;;;;;;16.84;39.90;98169.72;4180660;84;21193;-90
2021/03/13 10:45:18;;;;;;;4.33;1.37;;;;;;;15.98;40.67;98172.27;4153938;84;21692;-91
2021/03/13 10:51:26;;;;;;;3.77;1.95;;;;;;;16.43;40.74;98168.20;4167433;84;21351;-92
2021/03/13 11:04:00;;;;;;;5.62;1.57;;;;;;;17.58;40.09;98149.66;4661224;74;26439;-89
2021/03/13 11:10:14;;;;;;;3.70;1.90;;;;;;;17.29;36.10;98138.61;4587351;76;21224;-90
2021/03/13 11:16:23;;;;;;;5.28;2.22;;;;;;;16.86;37.93;98140.45;4566479;76;21633;-89
2021/03/13 11:22:29;;;;;;;4.67;1.60;;;;;;;17.36;37.82;98130.72;4588218;76;21363;-89
2021/03/13 11:28:52;;;;;;;5.73;1.53;;;;;;;17.71;35.04;98107.55;4529174;76;21189;-88
2021/03/13 11:35:04;;;;;;;3.83;1.52;;;;;;;16.69;37.36;98110.52;4600955;76;21188;-89
2021/03/13 11:41:24;;;;;;;3.35;1.70;;;;;;;16.15;37.70;98113.09;4585605;76;21747;-89
2021/03/13 11:47:27;;;;;;;4.92;1.72;;;;;;;16.47;36.56;98086.84;4588447;75;21200;-89
2021/03/13 11:53:29;;;;;;;3.10;1.60;;;;;;;16.83;37.83;98070.84;4581164;76;21175;-89
2021/03/13 11:59:35;;;;;;;2.60;1.57;;;;;;;16.51;36.72;98058.50;4589870;76;21213;-89
2021/03/13 12:05:48;;;;;;;2.35;1.60;;;;;;;15.93;36.57;98055.47;4547985;76;22054;-89
2021/03/13 12:11:49;;;;;;;3.98;2.00;;;;;;;15.90;37.78;98039.78;4572063;76;21195;-89
2021/03/13 12:17:51;;;;;;;3.40;1.60;;;;;;;15.77;36.25;98025.12;4559017;76;21160;-88
2021/03/13 12:23:53;;;;;;;3.62;1.50;;;;;;;15.49;37.10;98014.19;4569681;75;21169;-89
2021/03/13 12:29:55;;;;;;;11.28;1.90;;;;;;;15.18;36.97;98022.57;4422132;79;21664;-89
2021/03/13 12:35:56;;;;;;;3.02;1.25;;;;;;;14.57;37.81;98022.91;4570419;76;21804;-90
2021/03/13 12:42:13;;;;;;;3.58;1.98;;;;;;;14.46;37.20;98006.41;4577229;76;21189;-89
2021/03/13 12:48:15;;;;;;;2.40;1.40;;;;;;;13.99;38.44;98003.73;4586071;76;21626;-89
2021/03/13 12:54:30;;;;;;;3.08;1.32;;;;;;;13.85;38.30;97999.88;4570701;76;21202;-90
2021/03/13 13:00:32;;;;;;;2.72;1.57;;;;;;;13.58;38.31;97991.48;4578595;76;21358;-89
2021/03/13 13:06:43;;;;;;;3.40;1.85;;;;;;;13.22;38.37;97968.52;4564795;76;21198;-87
2021/03/13 13:12:45;;;;;;;4.55;2.47;;;;;;;13.17;38.84;97961.52;4577930;76;22251;-88
2021/03/13 13:18:47;;;;;;;3.87;2.12;;;;;;;13.02;39.80;97958.04;4566202;76;21428;-88
2021/03/13 13:24:54;;;;;;;4.67;2.45;;;;;;;12.87;39.51;97947.84;4573182;76;21197;-89
2021/03/13 13:30:55;;;;;;;;;;;;;;;12.61;39.58;97946.63;4576247;76;21825;-88
2021/03/13 13:36:57;;;;;;;5.20;2.72;;;;;;;12.45;41.06;97949.19;4565287;75;20491;-89
2021/03/13 13:43:00;;;;;;;5.50;2.72;;;;;;;12.75;40.62;97929.79;4584079;75;21141;-90
2021/03/13 13:49:02;;;;;;;2.77;1.90;;;;;;;12.99;40.70;97930.00;4577712;75;21161;-88
2021/03/13 13:55:12;;;;;;;6.20;1.92;;;;;;;13.32;40.45;97929.10;4540532;75;21190;-89
2021/03/13 14:01:14;;;;;;;5.35;2.12;;;;;;;13.33;39.53;97932.02;4572415;76;21178;-88
2021/03/13 14:07:16;;;;;;;3.05;1.75;;;;;;;13.20;40.04;97920.09;4570138;76;21588;-88
2021/03/13 14:13:17;;;;;;;4.17;1.47;;;;;;;12.76;40.61;97911.52;4568476;76;21304;-90
2021/03/13 14:19:19;;;;;;;4.28;1.52;;;;;;;12.50;40.89;97931.48;4594734;75;21294;-89
2021/03/13 14:25:20;;;;;;;4.22;2.33;;;;;;;12.45;40.75;97925.86;4575790;75;21162;-88
2021/03/13 14:31:34;;;;;;;3.02;1.55;;;;;;;12.14;41.99;97917.45;4568265;76;21198;-88
2021/03/13 14:37:36;;;;;;;2.95;1.40;;;;;;;12.03;42.34;97916.01;4559148;75;21226;-88
2021/03/13 14:43:37;;;;;;;5.08;2.75;;;;;;;11.83;42.87;97909.00;4564027;75;21191;-89
2021/03/13 14:49:39;;;;;;;3.40;1.82;;;;;;;11.66;43.96;97896.27;4581325;75;21495;-88
2021/03/13 14:55:42;;;;;;;5.62;2.27;;;;;;;11.40;44.30;97900.23;4584841;76;21167;-90
2021/03/13 15:01:44;;;;;;;7.20;2.72;;;;;;;11.18;44.76;97892.02;4555287;76;21147;-88
2021/03/13 15:07:47;;;;;;;5.95;1.87;;;;;;;11.05;45.56;97878.83;4568984;76;21165;-89
2021/03/13 15:13:48;;;;;;;4.60;2.27;;;;;;;11.06;45.95;97882.33;4583145;75;21339;-87
2021/03/13 15:19:50;;;;;;;6.85;2.70;;;;;;;11.10;45.86;97876.24;4560803;76;21299;-88
2021/03/13 15:25:54;;;;;;;7.70;4.10;;;;;;;11.09;46.25;97865.88;4558062;76;21212;-90
2021/03/13 15:31:55;;;;;;;7.30;1.95;;;;;;;11.01;45.92;97847.16;4595286;75;21137;-89
2021/03/13 15:37:57;;;;;;;5.53;2.80;;;;;;;10.78;46.41;97831.33;4574758;75;21165;-89
2021/03/13 15:44:02;;;;;;;4.75;2.50;;;;;;;10.68;46.77;97815.77;4398736;79;22306;-88
2021/03/13 15:50:08;;;;;;;6.08;2.65;;;;;;;10.56;47.36;97801.20;4580663;76;21165;-88
2021/03/13 15:56:10;;;;;;;3.90;1.98;;;;;;;10.49;47.22;97793.65;4573944;76;21231;-90
2021/03/13 16:02:11;;;;;;;5.33;2.45;;;;;;;10.40;47.77;97774.16;4561438;76;21199;-90
2021/03/13 16:08:13;;;;;;;5.17;2.40;;;;;;;10.32;47.94;97764.47;4592794;76;21857;-89
2021/03/13 16:14:17;;;;;;;6.47;3.20;;;;;;;10.18;48.22;97753.63;4407671;78;21212;-89
2021/03/13 16:20:19;;;;;;;7.95;3.77;;;;;;;10.05;48.07;97741.58;4574108;76;21652;-89
2021/03/13 16:26:22;;;;;;;13.72;4.45;;;;;;;9.98;48.03;97736.92;4565067;76;21662;-89
2021/03/13 16:32:26;;;;;;;8.28;3.55;;;;;;;9.96;48.10;97720.75;4564025;75;21708;-90
2021/03/13 16:38:34;;;;;;;6.75;2.85;;;;;;;9.94;48.30;97714.90;4563410;76;21192;-88
2021/03/13 16:44:36;;;;;;;8.00;3.98;;;;;;;9.80;48.48;97708.16;4595128;75;21334;-89
2021/03/13 16:50:38;;;;;;;9.05;3.35;;;;;;;9.69;49.03;97694.57;4373064;79;21182;-88
2021/03/13 16:56:42;;;;;;;7.10;3.40;;;;;;;9.67;48.95;97699.65;4439885;77;21177;-89
2021/03/13 17:02:44;;;;;;;8.35;3.62;;;;;;;9.64;49.03;97686.00;4412478;79;21199;-90
2021/03/13 17:08:46;;;;;;;7.05;3.35;;;;;;;9.67;48.43;97690.66;4579875;76;21195;-89
2021/03/13 17:14:49;;;;;;;6.20;3.25;;;;;;;9.82;47.73;97688.05;4528085;76;21220;-89
2021/03/13 17:21:14;;;;;;;8.50;3.50;;;;;;;9.84;46.87;97693.29;4490483;77;21197;-89
2021/03/13 17:27:23;;;;;;;6.58;3.12;;;;;;;9.86;46.67;97688.20;4504051;77;21195;-88
2021/03/13 17:33:25;;;;;;;6.08;2.90;;;;;;;9.79;46.56;97695.69;4458047;77;21153;-88
2021/03/13 17:39:28;;;;;;;6.03;2.87;;;;;;;9.86;46.07;97687.42;4490959;77;21254;-89
2021/03/13 17:45:45;;;;;;;6.87;2.70;;;;;;;9.89;45.65;97686.03;4501872;77;21661;-88
2021/03/13 17:51:48;;;;;;;8.13;3.40;;;;;;;9.88;45.63;97682.34;4506280;77;21212;-91
2021/03/13 17:57:51;;;;;;;8.83;3.15;;;;;;;9.86;46.24;97678.64;4501967;77;21194;-90
2021/03/13 18:03:53;;;;;;;7.53;3.00;;;;;;;9.81;45.72;97672.81;4485013;77;21697;-89
2021/03/13 18:09:55;;;;;;;12.58;5.30;;;;;;;9.78;46.15;97678.50;4515310;77;21173;-89
2021/03/13 18:15:58;;;;;;;9.88;3.92;;;;;;;9.83;46.10;97680.81;4511603;77;21129;-90
2021/03/13 18:22:00;;;;;;;8.68;3.72;;;;;;;9.80;46.44;97677.52;4471276;77;21178;-88
2021/03/13 18:28:02;;;;;;;7.58;3.50;;;;;;;9.83;46.84;97684.13;4440363;77;21594;-89
2021/03/13 18:34:09;;;;;;;9.28;4.05;;;;;;;9.78;46.85;97678.50;4486032;78;21358;-90
2021/03/13 18:40:11;;;;;;;9.48;3.95;;;;;;;9.78;46.87;97661.31;4484626;77;21279;-89
2021/03/13 18:46:14;;;;;;;7.37;2.98;;;;;;;9.75;46.95;97676.57;4492165;77;21222;-90
2021/03/13 18:52:17;;;;;;;7.33;3.37;;;;;;;9.67;47.32;97674.27;4457782;78;21310;-90
2021/03/13 18:58:21;;;;;;;9.75;4.20;;;;;;;9.61;48.08;97673.14;4492274;77;21194;-89
2021/03/13 19:10:52;;;;;;;9.48;4.30;;;;;;;9.63;47.55;97681.72;4488558;78;21582;-89
2021/03/13 19:16:55;;;;;;;9.48;4.37;;;;;;;9.53;47.71;97688.80;4479432;77;21748;-90
2021/03/13 19:23:03;;;;;;;9.95;4.15;;;;;;;9.35;48.68;97691.63;4488850;77;21193;-89
2021/03/13 19:29:19;;;;;;;10.97;4.57;;;;;;;9.20;48.66;97692.08;4475325;77;21329;-89
2021/03/13 19:35:24;;;;;;;5.78;3.00;;;;;;;9.17;49.01;97701.07;4476209;77;21186;-86
2021/03/13 19:41:26;;;;;;;7.58;2.95;;;;;;;9.31;48.35;97692.23;4484916;77;21165;-89
2021/03/13 19:47:28;;;;;;;8.15;2.47;;;;;;;9.49;48.79;97701.11;4516041;77;21161;-90
2021/03/13 19:53:30;;;;;;;5.92;3.22;;;;;;;9.58;48.96;97699.31;4480818;77;21216;-88
2021/03/13 19:59:36;;;;;;;6.90;3.35;;;;;;;9.57;48.88;97708.67;4500282;77;21942;-89
2021/03/13 20:05:37;;;;;;;10.63;3.25;;;;;;;9.52;49.26;97709.11;4495746;77;21161;-88
2021/03/13 20:11:39;;;;;;;10.15;4.62;;;;;;;9.41;49.57;97709.14;4493842;77;21729;-89
2021/03/13 20:17:41;;;;;;;8.80;3.87;;;;;;;9.26;50.03;97711.76;4483739;77;21167;-88
2021/03/13 20:23:43;;;;;;;9.53;3.70;;;;;;;9.05;50.91;97708.34;4491992;77;21339;-88
2021/03/13 20:29:45;;;;;;;10.15;3.15;;;;;;;8.85;50.85;97706.63;4506176;77;21258;-90
2021/03/13 20:35:47;;;;;;;8.48;3.58;;;;;;;8.63;51.05;97702.39;4508320;77;21217;-89
2021/03/13 20:41:51;;;;;;;10.23;4.92;;;;;;;8.43;51.06;97691.71;4506439;77;21335;-89
2021/03/13 20:47:52;;;;;;;16.55;6.00;;;;;;;8.31;51.13;97702.23;4481602;77;21176;-91
2021/03/13 20:53:54;;;;;;;15.78;6.12;;;;;;;8.28;51.63;97690.76;4441791;77;21595;-90
2021/03/13 20:59:56;;;;;;;12.33;5.25;;;;;;;8.14;51.68;97690.16;4488082;77;21232;-88
2021/03/13 21:05:57;;;;;;;10.98;4.40;;;;;;;7.98;52.07;97689.76;4486351;77;21113;-91
2021/03/13 21:11:59;;;;;;;12.98;5.30;;;;;;;7.81;52.48;97704.91;4484126;77;21198;-90
2021/03/13 21:18:01;;;;;;;14.45;4.28;;;;;;;7.77;52.65;97704.70;4499945;77;21188;-90
2021/03/13 21:24:05;;;;;;;11.83;4.37;;;;;;;7.73;53.14;97699.28;4493384;77;21167;-88
2021/03/13 21:30:09;;;;;;;8.78;4.60;;;;;;;7.74;53.64;97698.67;4502159;77;21393;-89
2021/03/13 21:36:10;;;;;;;6.95;3.62;;;;;;;7.74;55.20;97702.76;4491783;77;21186;-89
2021/03/13 21:42:13;;;;;;;9.90;3.83;;;;;;;7.85;56.16;97700.83;4484880;77;21255;-88
2021/03/13 21:48:14;;;;;;;6.55;2.70;;;;;;;8.05;57.16;97702.01;4484231;77;21347;-88
2021/03/13 21:54:16;;;;;;;5.78;2.70;;;;;;;8.43;56.05;97688.98;4496102;77;22276;-89
2021/03/13 22:00:18;;;;;;;7.33;3.05;;;;;;;8.61;56.24;97685.66;4482228;77;21341;-91
2021/03/13 22:06:21;;;;;;;8.23;3.15;;;;;;;8.82;55.40;97673.89;4493507;77;21180;-88
2021/03/13 22:12:23;;;;;;;5.95;3.00;;;;;;;8.81;55.17;97646.42;4498006;77;21149;-90
2021/03/13 22:18:25;;;;;;;8.53;3.70;;;;;;;8.81;55.28;97637.66;4475404;77;21834;-90
2021/03/13 22:24:26;;;;;;;6.17;2.67;;;;;;;8.78;55.32;97622.66;4499849;77;22425;-89
2021/03/13 22:30:29;;;;;;;6.03;2.62;;;;;;;8.70;55.49;97641.01;4485133;77;21195;-88
2021/03/13 22:36:30;;;;;;;9.13;3.40;;;;;;;8.58;55.85;97638.68;4500668;77;21565;-89
2021/03/13 22:42:33;;;;;;;5.62;2.75;;;;;;;8.46;56.31;97635.59;4495694;77;21659;-90
2021/03/13 22:48:34;;;;;;;6.20;2.80;;;;;;;8.39;57.03;97641.08;4496108;77;21198;-88
2021/03/13 22:54:36;;;;;;;4.87;2.80;;;;;;;8.40;56.89;97628.41;4481142;78;21225;-89
2021/03/13 23:00:46;;;;;;;6.45;2.95;;;;;;;8.37;58.25;97635.23;4487055;77;21168;-90
2021/03/13 23:06:48;;;;;;;7.70;2.85;;;;;;;8.38;57.71;97622.57;4495819;77;21412;-89
2021/03/13 23:12:50;;;;;;;4.25;2.62;;;;;;;8.32;58.11;97625.50;4489284;77;21156;-90
2021/03/13 23:18:52;;;;;;;7.28;3.45;;;;;;;8.35;58.48;97613.81;4365049;79;21335;-88
2021/03/13 23:24:54;;;;;;;13.10;5.15;;;;;;;8.31;58.32;97611.69;4496128;77;21153;-89
2021/03/13 23:30:56;;;;;;;9.13;4.12;;;;;;;8.27;58.52;97622.42;4485621;77;21160;-89
2021/03/13 23:37:38;;;;;;;5.58;3.30;;;;;;;8.34;59.33;97634.08;4483380;77;21211;-89
2021/03/13 23:50:13;;;;;;;7.25;3.50;;;;;;;8.85;61.16;97639.77;4503423;76;21209;-89
2021/03/13 23:56:14;;;;;;;8.63;3.05;;;;;;;8.95;62.73;97655.34;4514686;77;21695;-89
